createdAt,value
2023-03-12T00:02:09.457Z,88.90
2023-03-12T00:04:36.055Z,89.10
2023-03-12T00:07:05.713Z,89.10
2023-03-12T00:09:37.235Z,89.30
2023-03-12T00:12:05.136Z,90.30
2023-03-12T00:14:32.734Z,90.60
2023-03-12T00:16:59.215Z,90.40
2023-03-12T00:19:25.989Z,92.20
2023-03-12T00:21:52.465Z,92.80
2023-03-12T00:24:18.986Z,94.40
2023-03-12T00:26:45.482Z,94.30
2023-03-12T00:29:12.003Z,95.70
2023-03-12T00:31:38.492Z,95.00
2023-03-12T00:34:05.004Z,93.50
2023-03-12T00:36:32.333Z,93.70
2023-03-12T00:39:00.601Z,95.00
2023-03-12T00:41:28.660Z,96.00
2023-03-12T00:43:55.290Z,96.60
2023-03-12T00:46:22.225Z,96.40
2023-03-12T00:48:48.836Z,96.10
2023-03-12T00:51:15.616Z,96.80
2023-03-12T00:53:42.198Z,96.20
2023-03-12T00:56:08.888Z,96.60
2023-03-12T00:58:35.395Z,96.10
2023-03-12T01:01:02.876Z,96.20
2023-03-12T01:03:29.403Z,95.70
2023-03-12T01:05:55.869Z,95.80
2023-03-12T01:08:23.510Z,96.00
2023-03-12T01:10:50.994Z,96.80
2023-03-12T01:13:17.537Z,97.10
2023-03-12T01:15:44.050Z,97.10
2023-03-12T01:18:10.541Z,98.00
2023-03-12T01:20:37.324Z,98.30
2023-03-12T01:23:04.042Z,98.50
2023-03-12T01:25:30.584Z,98.80
2023-03-12T01:27:57.058Z,98.20
2023-03-12T01:30:23.562Z,98.30
2023-03-12T01:32:51.950Z,98.20
2023-03-12T01:35:18.937Z,98.30
2023-03-12T01:37:45.456Z,99.10
2023-03-12T01:40:20.131Z,98.70
2023-03-12T01:42:57.618Z,99.50
2023-03-12T01:46:45.690Z,99.60
2023-03-12T01:49:34.153Z,99.60
2023-03-12T01:52:10.461Z,99.10
2023-03-12T01:55:09.520Z,99.80
2023-03-12T01:57:57.888Z,99.90
2023-03-12T02:00:26.854Z,97.80
2023-03-12T02:02:59.453Z,97.80
2023-03-12T02:05:42.759Z,98.60
2023-03-12T02:08:14.137Z,98.50
2023-03-12T02:10:40.739Z,98.70
2023-03-12T02:13:07.502Z,99.00
2023-03-12T02:15:36.535Z,99.90
2023-03-12T02:18:05.256Z,99.90
2023-03-12T02:22:24.372Z,99.80
2023-03-12T02:26:07.562Z,99.80
2023-03-12T02:28:41.915Z,99.40
2023-03-12T02:31:11.990Z,99.70
2023-03-12T02:33:38.744Z,99.40
2023-03-12T02:36:05.680Z,98.30
2023-03-12T02:38:48.164Z,98.50
2023-03-12T02:41:29.915Z,98.40
2023-03-12T02:44:57.524Z,98.30
2023-03-12T02:47:24.026Z,98.40
2023-03-12T02:49:51.892Z,98.50
2023-03-12T02:52:18.397Z,98.90
2023-03-12T02:54:44.853Z,99.40
2023-03-12T02:57:11.316Z,99.50
2023-03-12T02:59:37.811Z,99.90
2023-03-12T03:02:04.425Z,99.90
2023-03-12T03:04:33.336Z,99.70
2023-03-12T03:07:00.377Z,99.70
2023-03-12T03:09:26.846Z,99.90
2023-03-12T03:11:53.355Z,99.60
2023-03-12T03:14:19.906Z,99.00
2023-03-12T03:16:46.380Z,98.90
2023-03-12T03:19:13.002Z,99.30
2023-03-12T03:21:39.547Z,99.90
2023-03-12T03:24:06.560Z,99.90
2023-03-12T03:26:33.053Z,99.90
2023-03-12T03:28:59.645Z,99.90
2023-03-12T03:31:26.226Z,99.90
2023-03-12T03:33:52.854Z,99.90
2023-03-12T03:36:19.335Z,99.90
2023-03-12T03:38:48.599Z,99.90
2023-03-12T03:41:20.123Z,99.90
2023-03-12T03:43:47.137Z,99.90
2023-03-12T03:46:14.859Z,99.90
2023-03-12T03:48:41.665Z,99.90
2023-03-12T03:51:10.862Z,99.90
2023-03-12T03:53:37.358Z,99.90
2023-03-12T03:56:11.288Z,99.90
2023-03-12T03:58:38.190Z,99.90
2023-03-12T04:01:05.531Z,99.90
2023-03-12T04:03:32.850Z,99.90
2023-03-12T04:06:03.107Z,99.90
2023-03-12T04:08:29.817Z,99.90
2023-03-12T04:10:56.288Z,99.90
2023-03-12T04:13:22.772Z,99.90
2023-03-12T04:15:53.069Z,99.90
2023-03-12T04:18:19.677Z,99.90
2023-03-12T04:20:46.344Z,99.90
2023-03-12T04:23:12.810Z,99.90
2023-03-12T04:25:39.494Z,99.90
2023-03-12T04:28:06.696Z,99.90
2023-03-12T04:30:33.254Z,99.90
2023-03-12T04:32:59.737Z,99.90
2023-03-12T04:35:26.211Z,99.90
2023-03-12T04:37:52.699Z,99.90
2023-03-12T04:40:19.278Z,99.90
2023-03-12T04:42:45.972Z,99.90
2023-03-12T04:45:12.549Z,99.90
2023-03-12T04:47:39.136Z,99.90
2023-03-12T04:50:06.735Z,99.90
2023-03-12T04:52:33.257Z,99.90
2023-03-12T04:54:59.783Z,99.90
2023-03-12T04:57:26.477Z,99.90
2023-03-12T04:59:53.349Z,99.90
2023-03-12T05:02:19.839Z,99.90
2023-03-12T05:04:46.305Z,99.90
2023-03-12T05:07:12.775Z,99.90
2023-03-12T05:09:39.267Z,99.90
2023-03-12T05:12:06.416Z,99.90
2023-03-12T05:14:32.902Z,99.90
2023-03-12T05:16:59.391Z,99.90
2023-03-12T05:19:25.852Z,99.90
2023-03-12T05:21:52.312Z,99.90
2023-03-12T05:24:18.802Z,99.90
2023-03-12T05:26:45.274Z,99.90
2023-03-12T05:29:11.880Z,99.90
2023-03-12T05:31:38.449Z,99.90
2023-03-12T05:34:05.029Z,99.90
2023-03-12T05:36:31.524Z,99.90
2023-03-12T05:38:58.159Z,99.90
2023-03-12T05:41:28.212Z,99.90
2023-03-12T05:43:56.544Z,99.90
2023-03-12T05:46:26.099Z,99.90
2023-03-12T05:48:53.031Z,99.90
2023-03-12T05:51:20.363Z,99.90
2023-03-12T05:53:47.056Z,99.90
2023-03-12T05:56:16.883Z,99.90
2023-03-12T05:58:44.589Z,99.90
2023-03-12T06:01:22.113Z,99.90
2023-03-12T06:03:49.255Z,99.90
2023-03-12T06:06:16.148Z,99.90
2023-03-12T06:08:43.245Z,99.90
2023-03-12T06:11:10.769Z,99.90
2023-03-12T06:13:37.404Z,99.90
2023-03-12T06:16:06.619Z,99.90
2023-03-12T06:18:34.543Z,99.90
2023-03-12T06:21:20.548Z,99.90
2023-03-12T06:23:48.616Z,99.90
2023-03-12T06:26:16.208Z,99.90
2023-03-12T06:28:44.083Z,99.90
2023-03-12T06:31:10.660Z,99.90
2023-03-12T06:33:37.783Z,99.90
2023-03-12T06:36:08.780Z,99.90
2023-03-12T06:38:35.898Z,99.90
2023-03-12T06:41:07.556Z,99.90
2023-03-12T06:43:36.559Z,99.80
2023-03-12T06:46:05.842Z,99.60
2023-03-12T06:48:36.033Z,98.40
2023-03-12T06:51:04.180Z,98.10
2023-03-12T06:53:31.620Z,97.10
2023-03-12T06:55:58.578Z,96.90
2023-03-12T06:58:25.339Z,96.70
2023-03-12T07:00:53.408Z,96.20
2023-03-12T07:03:20.474Z,95.80
2023-03-12T07:05:49.006Z,96.00
2023-03-12T07:08:17.953Z,95.10
2023-03-12T07:10:45.700Z,95.30
2023-03-12T07:13:12.489Z,95.20
2023-03-12T07:15:38.981Z,95.50
2023-03-12T07:18:07.868Z,95.00
2023-03-12T07:20:41.644Z,94.50
2023-03-12T07:23:08.739Z,94.70
2023-03-12T07:25:40.622Z,94.70
2023-03-12T07:28:08.460Z,94.70
2023-03-12T07:30:35.061Z,94.50
2023-03-12T07:33:08.576Z,94.00
2023-03-12T07:35:38.094Z,94.00
2023-03-12T07:38:06.355Z,93.70
2023-03-12T07:40:33.487Z,93.00
2023-03-12T07:43:00.221Z,92.80
2023-03-12T07:45:26.844Z,92.20
2023-03-12T07:47:53.409Z,92.00
2023-03-12T07:50:20.326Z,91.30
2023-03-12T07:52:47.117Z,90.90
2023-03-12T07:55:13.905Z,91.00
2023-03-12T07:57:40.589Z,90.50
2023-03-12T08:00:09.701Z,90.80
2023-03-12T08:02:36.806Z,90.60
2023-03-12T08:05:03.739Z,90.20
2023-03-12T08:07:31.709Z,89.50
2023-03-12T08:10:03.739Z,90.20
2023-03-12T08:12:30.464Z,90.00
2023-03-12T08:14:57.139Z,90.00
2023-03-12T08:17:23.690Z,89.90
2023-03-12T08:19:50.201Z,90.00
2023-03-12T08:22:16.755Z,90.40
2023-03-12T08:24:44.151Z,89.10
2023-03-12T08:27:11.635Z,87.20
2023-03-12T08:29:39.641Z,87.90
2023-03-12T08:32:07.438Z,87.70
2023-03-12T08:34:34.881Z,87.30
2023-03-12T08:37:02.181Z,87.60
2023-03-12T08:39:29.572Z,86.50
2023-03-12T08:41:56.059Z,86.30
2023-03-12T08:44:23.867Z,85.00
2023-03-12T08:46:51.826Z,85.20
2023-03-12T08:49:20.120Z,84.90
2023-03-12T08:51:46.997Z,85.10
2023-03-12T08:54:13.528Z,84.80
2023-03-12T08:56:43.053Z,85.00
2023-03-12T08:59:10.956Z,85.80
2023-03-12T09:01:39.812Z,84.50
2023-03-12T09:04:07.105Z,84.70
2023-03-12T09:06:34.704Z,84.90
2023-03-12T09:09:05.589Z,83.20
2023-03-12T09:11:33.712Z,83.70
2023-03-12T09:14:46.379Z,83.20
2023-03-12T09:17:29.769Z,81.40
2023-03-12T09:19:56.232Z,82.80
2023-03-12T09:22:22.728Z,81.40
2023-03-12T09:24:49.279Z,81.30
2023-03-12T09:27:15.758Z,81.70
2023-03-12T09:29:58.759Z,80.70
2023-03-12T09:32:26.798Z,80.30
2023-03-12T09:34:53.693Z,82.60
2023-03-12T09:37:22.390Z,81.30
2023-03-12T09:39:51.398Z,79.60
2023-03-12T09:42:44.890Z,79.30
2023-03-12T09:45:27.516Z,79.60
2023-03-12T09:48:02.330Z,80.10
2023-03-12T09:50:43.371Z,81.20
2023-03-12T09:53:40.442Z,78.80
2023-03-12T09:56:14.784Z,79.20
2023-03-12T09:58:47.372Z,79.00
2023-03-12T10:05:50.148Z,77.60
2023-03-12T10:09:48.612Z,76.70
2023-03-12T10:13:47.875Z,77.40
2023-03-12T10:17:06.754Z,76.90
2023-03-12T10:20:15.246Z,76.80
2023-03-12T10:26:55.594Z,77.30
2023-03-12T10:29:30.165Z,76.20
2023-03-12T10:32:30.215Z,76.80
2023-03-12T10:35:04.231Z,77.40
2023-03-12T10:37:43.007Z,78.00
2023-03-12T10:40:20.039Z,78.00
2023-03-12T10:42:47.734Z,76.80
2023-03-12T10:47:27.612Z,77.70
2023-03-12T10:49:54.197Z,75.50
2023-03-12T10:52:22.838Z,76.70
2023-03-12T10:54:52.840Z,79.20
2023-03-12T10:57:21.434Z,78.50
2023-03-12T10:59:50.557Z,77.40
2023-03-12T11:02:42.745Z,77.00
2023-03-12T11:05:29.676Z,78.20
2023-03-12T11:07:58.936Z,77.90
2023-03-12T11:10:45.964Z,78.10
2023-03-12T11:13:37.626Z,76.00
2023-03-12T11:16:30.131Z,74.70
2023-03-12T11:19:04.892Z,74.70
2023-03-12T11:21:37.422Z,73.50
2023-03-12T11:24:21.923Z,75.50
2023-03-12T11:27:06.749Z,73.60
2023-03-12T11:29:42.781Z,72.80
2023-03-12T11:33:03.304Z,74.00
2023-03-12T11:36:06.323Z,71.60
2023-03-12T11:38:56.333Z,72.60
2023-03-12T11:42:25.212Z,72.30
2023-03-12T11:45:28.828Z,72.60
2023-03-12T11:48:53.433Z,72.20
2023-03-12T11:53:28.186Z,72.20
2023-03-12T11:56:38.484Z,70.50
2023-03-12T12:01:55.837Z,71.50
2023-03-12T12:06:26.854Z,72.40
2023-03-12T12:09:17.640Z,72.80
2023-03-12T12:13:31.691Z,74.30
2023-03-12T12:17:01.414Z,74.00
2023-03-12T12:20:42.796Z,72.40
2023-03-12T12:28:59.943Z,72.00
2023-03-12T12:31:45.541Z,73.50
2023-03-12T12:34:51.200Z,74.30
2023-03-12T12:37:52.589Z,74.40
2023-03-12T12:40:44.439Z,71.80
2023-03-12T12:43:29.961Z,74.30
2023-03-12T12:46:16.395Z,72.80
2023-03-12T12:49:01.482Z,72.10
2023-03-12T12:51:39.903Z,72.10
2023-03-12T12:56:23.580Z,70.00
2023-03-12T12:59:49.755Z,71.60
2023-03-12T13:02:28.106Z,71.30
2023-03-12T13:04:58.685Z,69.70
2023-03-12T13:07:33.447Z,70.00
2023-03-12T13:10:06.377Z,73.40
2023-03-12T13:12:52.118Z,72.70
2023-03-12T13:15:39.315Z,70.80
2023-03-12T13:18:30.579Z,72.40
2023-03-12T13:22:50.329Z,68.90
2023-03-12T13:26:22.692Z,72.10
2023-03-12T13:31:48.491Z,71.40
2023-03-12T13:34:45.770Z,71.10
2023-03-12T13:37:47.952Z,70.80
2023-03-12T13:42:39.732Z,72.20
2023-03-12T13:45:30.999Z,70.70
2023-03-12T13:48:02.110Z,72.20
2023-03-12T13:50:31.951Z,72.70
2023-03-12T13:53:07.077Z,71.70
2023-03-12T13:55:36.843Z,71.70
2023-03-12T13:58:20.608Z,72.60
2023-03-12T14:01:23.633Z,72.50
2023-03-12T14:03:57.397Z,73.10
2023-03-12T14:06:29.704Z,73.60
2023-03-12T14:11:00.503Z,72.10
2023-03-12T14:16:50.797Z,72.50
2023-03-12T14:19:22.891Z,73.70
2023-03-12T14:21:52.184Z,73.50
2023-03-12T14:24:33.110Z,73.50
2023-03-12T14:27:03.776Z,72.40
2023-03-12T14:29:47.971Z,71.60
2023-03-12T14:32:22.134Z,71.60
2023-03-12T14:35:07.531Z,72.20
2023-03-12T14:37:50.688Z,73.20
2023-03-12T14:40:57.304Z,73.10
2023-03-12T14:43:37.190Z,73.00
2023-03-12T14:46:15.028Z,71.80
2023-03-12T14:48:41.606Z,72.00
2023-03-12T14:51:24.237Z,71.20
2023-03-12T14:53:52.418Z,72.40
2023-03-12T14:56:34.536Z,72.20
2023-03-12T14:59:30.582Z,72.30
2023-03-12T15:02:12.772Z,74.00
2023-03-12T15:04:40.706Z,74.10
2023-03-12T15:07:13.264Z,75.00
2023-03-12T15:09:45.511Z,75.00
2023-03-12T15:12:30.926Z,74.30
2023-03-12T15:15:07.622Z,73.80
2023-03-12T15:17:35.095Z,73.40
2023-03-12T15:20:08.474Z,74.20
2023-03-12T15:22:36.160Z,73.70
2023-03-12T15:25:22.454Z,74.70
2023-03-12T15:27:59.694Z,75.00
2023-03-12T15:30:28.679Z,74.50
2023-03-12T15:33:43.040Z,74.70
2023-03-12T15:36:32.701Z,74.50
2023-03-12T15:39:12.210Z,74.60
2023-03-12T15:41:48.861Z,75.20
2023-03-12T15:44:24.881Z,75.10
2023-03-12T15:47:10.788Z,75.60
2023-03-12T15:49:39.052Z,75.40
2023-03-12T15:52:34.471Z,75.80
2023-03-12T15:55:27.238Z,76.20
2023-03-12T15:57:56.251Z,75.50
2023-03-12T16:00:43.918Z,76.60
2023-03-12T16:03:19.276Z,76.50
2023-03-12T16:05:47.879Z,77.00
2023-03-12T16:08:20.972Z,77.90
2023-03-12T16:10:50.955Z,77.20
2023-03-12T16:13:21.203Z,77.20
2023-03-12T16:15:48.415Z,77.00
2023-03-12T16:18:19.117Z,76.70
2023-03-12T16:20:46.786Z,77.60
2023-03-12T16:23:14.005Z,79.40
2023-03-12T16:25:52.166Z,78.90
2023-03-12T16:28:21.644Z,79.10
2023-03-12T16:30:48.636Z,79.90
2023-03-12T16:33:21.875Z,79.50
2023-03-12T16:35:48.478Z,80.40
2023-03-12T16:38:15.352Z,79.70
2023-03-12T16:40:48.846Z,78.80
2023-03-12T16:43:28.424Z,83.40
2023-03-12T16:45:55.767Z,84.10
2023-03-12T16:48:23.771Z,87.10
2023-03-12T16:50:56.823Z,87.60
2023-03-12T16:53:24.534Z,90.20
2023-03-12T16:56:01.038Z,90.50
2023-03-12T16:58:29.525Z,90.30
2023-03-12T17:00:57.213Z,89.80
2023-03-12T17:03:37.098Z,90.20
2023-03-12T17:06:06.703Z,90.50
2023-03-12T17:08:35.151Z,91.70
2023-03-12T17:11:01.656Z,92.30
2023-03-12T17:13:29.243Z,92.70
2023-03-12T17:15:56.700Z,91.90
2023-03-12T17:18:23.839Z,93.70
2023-03-12T17:20:51.044Z,93.20
2023-03-12T17:23:18.433Z,93.20
2023-03-12T17:25:45.783Z,93.10
2023-03-12T17:28:14.509Z,93.00
2023-03-12T17:30:41.634Z,92.90
2023-03-12T17:33:14.988Z,93.60
2023-03-12T17:35:41.866Z,93.40
2023-03-12T17:38:09.489Z,93.40
2023-03-12T17:40:43.047Z,94.00
2023-03-12T17:43:09.847Z,94.40
2023-03-12T17:45:36.605Z,93.60
2023-03-12T17:48:03.473Z,93.50
2023-03-12T17:50:29.974Z,93.90
2023-03-12T17:52:56.431Z,94.50
2023-03-12T17:55:22.921Z,94.60
2023-03-12T17:57:49.704Z,94.30
2023-03-12T18:00:17.021Z,93.90
2023-03-12T18:02:43.845Z,94.70
2023-03-12T18:05:11.271Z,95.10
2023-03-12T18:07:38.026Z,95.30
2023-03-12T18:10:07.987Z,96.10
2023-03-12T18:12:37.131Z,96.70
2023-03-12T18:15:06.229Z,96.90
2023-03-12T18:17:32.730Z,97.10
2023-03-12T18:19:59.188Z,97.00
2023-03-12T18:22:25.675Z,97.00
2023-03-12T18:24:52.136Z,97.10
2023-03-12T18:27:18.638Z,97.30
2023-03-12T18:29:45.104Z,96.90
2023-03-12T18:32:11.556Z,96.80
2023-03-12T18:34:41.386Z,97.10
2023-03-12T18:37:08.067Z,97.30
2023-03-12T18:39:34.546Z,97.60
2023-03-12T18:42:01.067Z,98.20
2023-03-12T18:44:27.551Z,98.40
2023-03-12T18:46:54.241Z,98.10
2023-03-12T18:49:21.019Z,98.10
2023-03-12T18:51:52.625Z,97.80
2023-03-12T18:54:19.202Z,97.40
2023-03-12T18:56:46.010Z,97.70
2023-03-12T18:59:13.844Z,97.50
2023-03-12T19:01:41.889Z,96.90
2023-03-12T19:04:10.723Z,97.40
2023-03-12T19:06:49.823Z,97.80
2023-03-12T19:09:17.800Z,98.20
2023-03-12T19:11:47.165Z,98.40
2023-03-12T19:14:13.734Z,98.40
2023-03-12T19:16:40.340Z,99.00
2023-03-12T19:19:09.658Z,99.00
2023-03-12T19:21:36.135Z,98.20
2023-03-12T19:24:02.657Z,98.30
2023-03-12T19:26:29.121Z,98.20
2023-03-12T19:28:55.608Z,98.80
2023-03-12T19:31:22.083Z,98.80
2023-03-12T19:33:48.594Z,98.90
2023-03-12T19:36:15.080Z,98.90
2023-03-12T19:38:41.575Z,99.10
2023-03-12T19:41:08.558Z,99.30
2023-03-12T19:43:36.393Z,99.30
2023-03-12T19:46:03.691Z,99.00
2023-03-12T19:48:30.288Z,98.90
2023-03-12T19:50:56.822Z,98.40
2023-03-12T19:53:24.050Z,98.10
2023-03-12T19:55:51.232Z,98.00
2023-03-12T19:58:17.772Z,98.40
2023-03-12T20:00:44.414Z,98.50
2023-03-12T20:03:11.262Z,98.90
2023-03-12T20:05:37.949Z,99.10
2023-03-12T20:08:04.599Z,99.30
2023-03-12T20:10:31.643Z,99.20
2023-03-12T20:12:58.160Z,98.80
2023-03-12T20:15:24.721Z,98.80
2023-03-12T20:17:53.916Z,99.00
2023-03-12T20:20:20.409Z,98.80
2023-03-12T20:22:46.898Z,98.70
2023-03-12T20:25:13.624Z,98.70
2023-03-12T20:27:40.145Z,98.70
2023-03-12T20:30:08.059Z,98.60
2023-03-12T20:32:34.653Z,99.10
2023-03-12T20:35:01.148Z,99.50
2023-03-12T20:37:27.679Z,99.90
2023-03-12T20:39:54.167Z,99.30
2023-03-12T20:42:20.663Z,99.50
2023-03-12T20:44:47.150Z,99.90
2023-03-12T20:47:13.607Z,99.90
2023-03-12T20:49:40.090Z,99.90
2023-03-12T20:52:06.540Z,99.90
2023-03-12T20:54:33.041Z,99.90
2023-03-12T20:56:59.501Z,99.90
2023-03-12T20:59:25.975Z,99.90
2023-03-12T21:01:52.444Z,99.90
2023-03-12T21:04:18.979Z,99.90
2023-03-12T21:06:46.811Z,99.90
2023-03-12T21:09:13.305Z,99.90
2023-03-12T21:11:39.766Z,99.90
2023-03-12T21:14:06.290Z,99.90
2023-03-12T21:16:32.822Z,99.90
2023-03-12T21:19:00.292Z,99.90
2023-03-12T21:21:27.665Z,99.90
2023-03-12T21:23:54.247Z,99.90
2023-03-12T21:26:21.178Z,99.90
2023-03-12T21:28:47.660Z,99.90
2023-03-12T21:31:16.860Z,99.90
2023-03-12T21:33:43.500Z,99.90
2023-03-12T21:36:13.422Z,99.90
2023-03-12T21:38:42.179Z,99.90
2023-03-12T21:41:12.198Z,99.90
2023-03-12T21:43:39.551Z,99.90
2023-03-12T21:46:09.463Z,99.90
2023-03-12T21:48:36.539Z,99.90
2023-03-12T21:51:06.143Z,99.90
2023-03-12T21:53:33.249Z,99.90
2023-03-12T21:56:01.392Z,99.90
2023-03-12T21:58:29.524Z,99.90
2023-03-12T22:01:09.795Z,99.90
2023-03-12T22:03:37.636Z,99.90
2023-03-12T22:06:05.396Z,99.90
2023-03-12T22:08:32.603Z,99.90
2023-03-12T22:10:59.368Z,99.90
2023-03-12T22:13:26.023Z,99.90
2023-03-12T22:15:59.373Z,99.90
2023-03-12T22:18:27.791Z,99.90
2023-03-12T22:21:00.966Z,99.90
2023-03-12T22:23:28.486Z,99.90
2023-03-12T22:25:55.402Z,99.90
2023-03-12T22:28:25.280Z,99.90
2023-03-12T22:31:05.723Z,99.90
2023-03-12T22:33:35.010Z,99.90
2023-03-12T22:36:07.325Z,99.90
2023-03-12T22:38:38.583Z,99.90
2023-03-12T22:41:18.636Z,99.90
2023-03-12T22:43:47.440Z,99.90
2023-03-12T22:46:15.775Z,99.90
2023-03-12T22:48:44.093Z,99.90
2023-03-12T22:51:10.922Z,99.90
2023-03-12T22:53:37.836Z,99.90
2023-03-12T22:56:08.723Z,99.90
2023-03-12T22:58:35.751Z,99.90
2023-03-12T23:01:22.851Z,99.90
2023-03-12T23:03:50.811Z,99.90
2023-03-12T23:06:26.982Z,99.90
2023-03-12T23:08:56.379Z,99.90
2023-03-12T23:11:25.156Z,99.90
2023-03-12T23:13:53.223Z,99.90
2023-03-12T23:16:23.717Z,99.90
2023-03-12T23:18:50.558Z,99.90
2023-03-12T23:21:22.893Z,99.90
2023-03-12T23:23:50.694Z,99.90
2023-03-12T23:26:25.667Z,99.90
2023-03-12T23:28:58.176Z,99.90
2023-03-12T23:31:26.847Z,99.90
2023-03-12T23:33:53.818Z,99.90
2023-03-12T23:36:22.831Z,99.90
2023-03-12T23:38:50.207Z,99.90
2023-03-12T23:41:30.501Z,99.90
2023-03-12T23:43:57.921Z,99.90
2023-03-12T23:46:26.450Z,99.90
2023-03-12T23:48:54.005Z,99.90
2023-03-12T23:51:27.573Z,99.90
2023-03-12T23:54:04.459Z,99.90
2023-03-12T23:56:35.479Z,99.90
2023-03-12T23:59:03.428Z,99.90
